createdAt,value
2023-05-19T00:02:06.071Z,3.70
2023-05-19T00:05:10.461Z,5.43
2023-05-19T00:08:19.937Z,2.77
2023-05-19T00:11:23.014Z,2.67
2023-05-19T00:14:25.831Z,3.70
2023-05-19T00:17:28.980Z,3.20
2023-05-19T00:20:31.748Z,4.80
2023-05-19T00:23:34.703Z,3.70
2023-05-19T00:26:37.280Z,3.95
2023-05-19T00:29:40.433Z,3.87
2023-05-19T00:32:43.985Z,5.45
2023-05-19T00:35:46.662Z,4.87
2023-05-19T00:38:51.175Z,3.33
2023-05-19T00:41:53.906Z,5.55
2023-05-19T00:44:56.345Z,3.55
2023-05-19T00:47:59.108Z,5.12
2023-05-19T00:51:04.747Z,4.07
2023-05-19T00:54:08.646Z,4.03
2023-05-19T00:57:12.579Z,2.95
2023-05-19T01:00:18.389Z,4.18
2023-05-19T01:03:21.487Z,3.62
2023-05-19T01:06:25.688Z,3.27
2023-05-19T01:09:28.482Z,4.27
2023-05-19T01:12:31.300Z,4.50
2023-05-19T01:15:45.982Z,6.53
2023-05-19T01:19:03.960Z,3.75
2023-05-19T01:22:33.693Z,4.70
2023-05-19T01:25:51.749Z,4.10
2023-05-19T01:29:17.322Z,4.43
2023-05-19T01:32:21.276Z,4.18
2023-05-19T01:35:26.277Z,4.43
2023-05-19T01:38:30.337Z,6.07
2023-05-19T01:41:34.659Z,3.57
2023-05-19T01:44:38.062Z,4.93
2023-05-19T01:47:43.887Z,4.28
2023-05-19T01:50:47.166Z,3.97
2023-05-19T01:53:51.399Z,4.43
2023-05-19T01:56:58.052Z,4.63
2023-05-19T02:00:22.368Z,3.83
2023-05-19T02:03:43.894Z,4.93
2023-05-19T02:07:09.821Z,3.70
2023-05-19T02:10:23.015Z,4.70
2023-05-19T02:13:31.686Z,4.93
2023-05-19T02:16:36.796Z,4.40
2023-05-19T02:19:42.231Z,4.53
2023-05-19T02:22:45.959Z,3.75
2023-05-19T02:25:49.249Z,3.27
2023-05-19T02:28:51.940Z,3.95
2023-05-19T02:31:54.615Z,3.45
2023-05-19T02:34:57.355Z,4.35
2023-05-19T02:37:59.898Z,5.35
2023-05-19T02:41:03.451Z,4.00
2023-05-19T02:44:06.578Z,3.42
2023-05-19T02:47:09.385Z,3.40
2023-05-19T02:50:11.864Z,3.70
2023-05-19T02:53:14.622Z,3.35
2023-05-19T02:56:17.090Z,3.17
2023-05-19T02:59:20.096Z,2.90
2023-05-19T03:02:22.479Z,4.22
2023-05-19T03:05:25.177Z,6.15
2023-05-19T03:08:28.249Z,3.80
2023-05-19T03:11:31.067Z,3.33
2023-05-19T03:14:34.818Z,3.53
2023-05-19T03:17:37.829Z,2.15
2023-05-19T03:20:42.441Z,7.80
2023-05-19T03:23:45.060Z,3.22
2023-05-19T03:26:47.956Z,3.60
2023-05-19T03:29:53.852Z,4.25
2023-05-19T03:32:56.952Z,4.87
2023-05-19T03:35:59.909Z,5.55
2023-05-19T03:39:07.030Z,2.92
2023-05-19T03:42:10.272Z,6.50
2023-05-19T03:45:12.959Z,6.18
2023-05-19T03:48:17.082Z,6.82
2023-05-19T03:51:21.904Z,3.53
2023-05-19T03:54:26.274Z,3.35
2023-05-19T03:57:29.492Z,4.03
2023-05-19T04:00:32.363Z,3.12
2023-05-19T04:03:37.250Z,3.15
2023-05-19T04:06:41.914Z,2.45
2023-05-19T04:09:45.222Z,3.60
2023-05-19T04:12:48.176Z,5.97
2023-05-19T04:15:54.386Z,3.67
2023-05-19T04:18:57.066Z,3.03
2023-05-19T04:22:00.303Z,3.80
2023-05-19T04:25:04.600Z,2.55
2023-05-19T04:28:07.761Z,3.50
2023-05-19T04:31:12.805Z,2.42
2023-05-19T04:34:15.985Z,3.12
2023-05-19T04:37:20.073Z,3.83
2023-05-19T04:40:25.925Z,4.87
2023-05-19T04:43:31.681Z,2.30
2023-05-19T04:46:36.181Z,4.53
2023-05-19T04:49:39.185Z,2.65
2023-05-19T04:52:42.678Z,3.00
2023-05-19T04:55:47.632Z,2.90
2023-05-19T04:58:51.088Z,2.33
2023-05-19T05:01:53.686Z,2.30
2023-05-19T05:04:56.894Z,6.95
2023-05-19T05:08:03.419Z,4.60
2023-05-19T05:11:08.012Z,3.08
2023-05-19T05:14:11.372Z,2.43
2023-05-19T05:17:17.400Z,3.37
2023-05-19T05:20:20.538Z,5.12
2023-05-19T05:23:23.945Z,5.37
2023-05-19T05:26:30.986Z,2.58
2023-05-19T05:29:35.327Z,3.90
2023-05-19T05:32:38.847Z,3.95
2023-05-19T05:35:43.782Z,2.50
2023-05-19T05:38:54.258Z,5.97
2023-05-19T05:41:58.090Z,3.90
2023-05-19T05:45:00.768Z,3.70
2023-05-19T05:48:07.473Z,4.90
2023-05-19T05:51:10.433Z,7.40
2023-05-19T05:54:14.498Z,4.25
2023-05-19T05:57:17.406Z,3.67
2023-05-19T06:00:22.379Z,3.07
2023-05-19T06:03:26.075Z,2.72
2023-05-19T06:06:29.073Z,4.12
2023-05-19T06:09:32.985Z,4.12
2023-05-19T06:12:42.138Z,3.30
2023-05-19T06:15:45.122Z,1.70
2023-05-19T06:18:49.426Z,5.30
2023-05-19T06:21:52.569Z,4.95
2023-05-19T06:24:55.252Z,6.75
2023-05-19T06:27:58.138Z,3.33
2023-05-19T06:31:03.950Z,3.43
2023-05-19T06:34:10.478Z,3.45
2023-05-19T06:37:19.666Z,3.22
2023-05-19T06:40:23.364Z,2.50
2023-05-19T06:43:28.920Z,3.28
2023-05-19T06:46:32.030Z,2.30
2023-05-19T06:49:34.551Z,3.50
2023-05-19T06:52:37.764Z,6.95
2023-05-19T06:55:50.694Z,4.90
2023-05-19T06:59:01.902Z,4.22
2023-05-19T07:02:05.137Z,4.77
2023-05-19T07:05:09.363Z,2.53
2023-05-19T07:08:12.092Z,2.30
2023-05-19T07:11:15.425Z,4.15
2023-05-19T07:14:27.304Z,6.05
2023-05-19T07:17:30.441Z,2.83
2023-05-19T07:20:34.543Z,5.03
2023-05-19T07:23:37.490Z,2.55
2023-05-19T07:26:40.653Z,3.67
2023-05-19T07:29:52.051Z,4.03
2023-05-19T07:32:56.315Z,2.63
2023-05-19T07:35:59.240Z,3.62
2023-05-19T07:39:01.905Z,3.08
2023-05-19T07:42:05.081Z,3.17
2023-05-19T07:45:08.062Z,3.50
2023-05-19T07:48:11.099Z,4.03
2023-05-19T07:51:13.996Z,3.62
2023-05-19T07:54:17.090Z,3.45
2023-05-19T07:57:23.000Z,8.30
2023-05-19T08:00:26.357Z,4.28
2023-05-19T08:03:30.949Z,3.27
2023-05-19T08:06:33.708Z,3.92
2023-05-19T08:09:36.626Z,7.57
2023-05-19T08:12:39.093Z,7.22
2023-05-19T08:15:42.851Z,3.00
2023-05-19T08:18:45.403Z,3.83
2023-05-19T08:21:48.433Z,3.25
2023-05-19T08:24:51.891Z,3.12
2023-05-19T08:27:54.669Z,3.35
2023-05-19T08:30:57.195Z,3.95
2023-05-19T08:33:59.919Z,6.13
2023-05-19T08:37:03.235Z,4.30
2023-05-19T08:40:07.735Z,3.87
2023-05-19T08:43:11.343Z,8.50
2023-05-19T08:46:16.422Z,3.53
2023-05-19T08:49:25.578Z,3.10
2023-05-19T08:52:28.448Z,6.40
2023-05-19T08:55:57.678Z,5.10
2023-05-19T08:59:04.705Z,4.22
2023-05-19T09:02:11.256Z,4.95
2023-05-19T09:05:16.020Z,6.23
2023-05-19T09:08:18.681Z,6.30
2023-05-19T09:11:22.784Z,7.10
2023-05-19T09:14:25.468Z,4.10
2023-05-19T09:17:28.197Z,5.15
2023-05-19T09:20:31.059Z,8.17
2023-05-19T09:23:34.220Z,5.03
2023-05-19T09:26:41.494Z,4.20
2023-05-19T09:29:44.331Z,5.00
2023-05-19T09:32:48.132Z,4.00
2023-05-19T09:35:54.311Z,3.90
2023-05-19T09:38:57.115Z,6.07
2023-05-19T09:42:04.895Z,3.97
2023-05-19T09:45:09.351Z,4.15
2023-05-19T09:48:12.779Z,5.18
2023-05-19T09:51:15.287Z,5.50
2023-05-19T09:54:20.531Z,8.57
2023-05-19T09:57:29.832Z,4.20
2023-05-19T10:00:32.939Z,4.75
2023-05-19T10:03:36.938Z,5.35
2023-05-19T10:06:40.882Z,4.23
2023-05-19T10:09:44.936Z,6.20
2023-05-19T10:12:48.969Z,4.78
2023-05-19T10:19:01.234Z,5.72
2023-05-19T10:22:04.392Z,4.27
2023-05-19T10:25:08.605Z,6.80
2023-05-19T10:28:15.182Z,6.35
2023-05-19T10:31:21.602Z,5.90
2023-05-19T10:34:24.258Z,3.95
2023-05-19T10:37:41.876Z,15.83
2023-05-19T10:41:07.632Z,5.22
2023-05-19T10:44:23.519Z,6.03
2023-05-19T10:47:26.840Z,6.15
2023-05-19T10:50:37.965Z,6.80
2023-05-19T10:53:46.425Z,5.40
2023-05-19T10:56:49.086Z,7.20
2023-05-19T10:59:51.802Z,6.93
2023-05-19T11:02:57.621Z,6.68
2023-05-19T11:06:28.546Z,4.65
2023-05-19T11:09:39.864Z,6.87
2023-05-19T11:12:46.026Z,5.70
2023-05-19T11:15:52.003Z,4.55
2023-05-19T11:18:56.466Z,4.80
2023-05-19T11:22:12.561Z,7.87
2023-05-19T11:25:38.316Z,4.77
2023-05-19T11:28:44.474Z,5.97
2023-05-19T11:31:48.798Z,6.43
2023-05-19T11:34:51.586Z,7.80
2023-05-19T11:37:57.669Z,3.58
2023-05-19T11:41:00.824Z,7.03
2023-05-19T11:44:03.717Z,5.97
2023-05-19T11:47:06.776Z,8.45
2023-05-19T11:50:11.712Z,4.50
2023-05-19T11:53:15.461Z,4.60
2023-05-19T11:56:18.348Z,4.93
2023-05-19T11:59:30.449Z,7.05
2023-05-19T12:02:36.427Z,6.28
2023-05-19T12:05:48.396Z,6.82
2023-05-19T12:08:52.253Z,6.70
2023-05-19T12:11:55.570Z,7.23
2023-05-19T12:14:58.185Z,6.07
2023-05-19T12:18:02.577Z,5.05
2023-05-19T12:21:06.023Z,9.68
2023-05-19T12:24:09.273Z,7.95
2023-05-19T12:27:20.448Z,7.30
2023-05-19T12:30:30.088Z,6.57
2023-05-19T12:33:35.477Z,4.65
2023-05-19T12:36:38.830Z,6.53
2023-05-19T12:39:42.973Z,5.43
2023-05-19T12:42:46.608Z,6.20
2023-05-19T12:45:49.676Z,4.93
2023-05-19T12:48:52.560Z,6.72
2023-05-19T12:51:55.030Z,6.57
2023-05-19T12:55:07.958Z,6.43
2023-05-19T12:58:12.010Z,7.63
2023-05-19T13:01:19.853Z,7.60
2023-05-19T13:04:22.460Z,6.22
2023-05-19T13:07:28.149Z,8.30
2023-05-19T13:10:32.112Z,6.70
2023-05-19T13:13:35.044Z,5.67
2023-05-19T13:16:37.543Z,11.07
2023-05-19T13:19:40.673Z,4.68
2023-05-19T13:22:43.510Z,8.10
2023-05-19T13:25:46.809Z,5.80
2023-05-19T13:28:52.276Z,6.00
2023-05-19T13:31:55.568Z,5.70
2023-05-19T13:34:58.709Z,8.95
2023-05-19T13:38:11.204Z,5.25
2023-05-19T13:41:15.935Z,11.27
2023-05-19T13:44:19.739Z,6.57
2023-05-19T13:47:23.865Z,7.12
2023-05-19T13:50:26.773Z,6.10
2023-05-19T13:53:31.212Z,9.15
2023-05-19T13:56:34.019Z,8.98
2023-05-19T13:59:43.117Z,6.87
2023-05-19T14:02:58.372Z,9.10
2023-05-19T14:06:01.235Z,7.20
2023-05-19T14:09:04.170Z,6.28
2023-05-19T14:12:07.330Z,6.78
2023-05-19T14:15:11.456Z,6.37
2023-05-19T14:18:14.609Z,9.13
2023-05-19T14:21:17.035Z,8.57
2023-05-19T14:24:20.221Z,11.63
2023-05-19T14:27:23.052Z,6.25
2023-05-19T14:30:25.879Z,9.37
2023-05-19T14:33:29.725Z,4.62
2023-05-19T14:36:35.598Z,13.20
2023-05-19T14:39:45.630Z,7.00
2023-05-19T14:42:50.658Z,6.70
2023-05-19T14:45:53.223Z,7.57
2023-05-19T14:48:56.094Z,10.25
2023-05-19T14:51:58.719Z,7.75
2023-05-19T14:55:01.493Z,8.05
2023-05-19T14:58:07.894Z,5.75
2023-05-19T15:01:19.054Z,10.00
2023-05-19T15:04:21.776Z,8.05
2023-05-19T15:07:24.745Z,11.70
2023-05-19T15:10:27.113Z,9.93
2023-05-19T15:13:32.697Z,10.15
2023-05-19T15:16:38.026Z,9.80
2023-05-19T15:19:42.819Z,7.37
2023-05-19T15:22:45.342Z,7.80
2023-05-19T15:25:48.129Z,10.45
2023-05-19T15:31:56.191Z,6.87
2023-05-19T15:34:58.661Z,9.32
2023-05-19T15:38:06.163Z,7.53
2023-05-19T15:41:09.149Z,8.30
2023-05-19T15:44:11.884Z,8.85
2023-05-19T15:47:14.360Z,9.83
2023-05-19T15:50:17.149Z,9.20
2023-05-19T15:53:20.341Z,8.30
2023-05-19T15:56:23.008Z,7.82
2023-05-19T15:59:25.510Z,8.30
2023-05-19T16:02:32.306Z,9.07
2023-05-19T16:05:35.181Z,7.43
2023-05-19T16:08:38.091Z,8.50
2023-05-19T16:11:40.876Z,10.52
2023-05-19T16:14:43.257Z,8.98
2023-05-19T16:17:48.487Z,9.80
2023-05-19T16:20:51.445Z,8.48
2023-05-19T16:23:54.269Z,10.25
2023-05-19T16:26:56.700Z,9.57
2023-05-19T16:30:03.376Z,7.35
2023-05-19T16:33:09.465Z,6.73
2023-05-19T16:36:12.552Z,7.07
2023-05-19T16:39:15.435Z,8.05
2023-05-19T16:42:18.188Z,6.55
2023-05-19T16:45:20.703Z,7.35
2023-05-19T16:48:23.334Z,8.63
2023-05-19T16:51:25.871Z,6.80
2023-05-19T16:54:28.937Z,7.72
2023-05-19T16:57:31.372Z,11.48
2023-05-19T17:00:34.597Z,6.95
2023-05-19T17:03:37.442Z,7.80
2023-05-19T17:06:40.478Z,9.55
2023-05-19T17:09:46.376Z,9.02
2023-05-19T17:12:49.144Z,11.77
2023-05-19T17:15:52.765Z,9.93
2023-05-19T17:18:56.104Z,14.67
2023-05-19T17:21:58.554Z,7.22
2023-05-19T17:25:01.442Z,9.40
2023-05-19T17:28:03.969Z,9.55
2023-05-19T17:31:13.835Z,9.13
2023-05-19T17:34:16.306Z,6.93
2023-05-19T17:37:23.357Z,15.57
2023-05-19T17:40:25.998Z,13.15
2023-05-19T17:43:29.074Z,8.48
2023-05-19T17:46:34.733Z,9.32
2023-05-19T17:49:37.595Z,8.80
2023-05-19T17:52:45.018Z,10.10
2023-05-19T17:56:00.956Z,11.60
2023-05-19T17:59:03.597Z,7.43
2023-05-19T18:02:07.506Z,12.20
2023-05-19T18:05:11.003Z,8.23
2023-05-19T18:08:13.795Z,7.43
2023-05-19T18:11:20.074Z,9.50
2023-05-19T18:14:25.825Z,9.48
2023-05-19T18:17:29.557Z,9.52
2023-05-19T18:20:34.014Z,13.80
2023-05-19T18:23:37.040Z,10.60
2023-05-19T18:26:42.065Z,10.73
2023-05-19T18:29:47.506Z,9.00
2023-05-19T18:32:50.040Z,10.32
2023-05-19T18:35:52.788Z,10.90
2023-05-19T18:38:58.478Z,12.65
2023-05-19T18:42:03.348Z,15.02
2023-05-19T18:45:06.581Z,13.27
2023-05-19T18:48:09.459Z,10.88
2023-05-19T18:51:14.329Z,16.33
2023-05-19T18:54:17.153Z,12.80
2023-05-19T18:57:19.645Z,10.65
2023-05-19T19:00:26.028Z,11.48
2023-05-19T19:03:28.790Z,12.55
2023-05-19T19:06:31.876Z,15.80
2023-05-19T19:09:34.460Z,14.73
2023-05-19T19:12:38.937Z,12.25
2023-05-19T19:15:41.416Z,15.55
2023-05-19T19:18:44.233Z,16.12
2023-05-19T19:21:47.107Z,12.20
2023-05-19T19:24:49.811Z,19.73
2023-05-19T19:27:52.151Z,11.20
2023-05-19T19:30:54.799Z,13.23
2023-05-19T19:34:00.299Z,14.65
2023-05-19T19:37:03.901Z,13.60
2023-05-19T19:40:08.734Z,12.32
2023-05-19T19:43:11.725Z,9.88
2023-05-19T19:46:14.543Z,12.90
2023-05-19T19:49:17.448Z,10.48
2023-05-19T19:52:20.160Z,14.23
2023-05-19T19:55:25.153Z,13.62
2023-05-19T19:58:29.763Z,17.23
2023-05-19T20:01:33.761Z,12.63
2023-05-19T20:04:36.579Z,12.37
2023-05-19T20:07:39.014Z,10.37
2023-05-19T20:10:41.649Z,12.27
2023-05-19T20:13:44.087Z,11.32
2023-05-19T20:16:47.209Z,10.98
2023-05-19T20:19:49.657Z,11.30
2023-05-19T20:22:54.298Z,9.03
2023-05-19T20:26:10.906Z,16.98
2023-05-19T20:29:16.900Z,13.62
2023-05-19T20:32:19.365Z,17.98
2023-05-19T20:35:22.710Z,10.38
2023-05-19T20:38:25.381Z,16.10
2023-05-19T20:41:28.208Z,17.42
2023-05-19T20:44:30.859Z,14.00
2023-05-19T20:47:33.809Z,11.85
2023-05-19T20:50:39.447Z,12.63
2023-05-19T20:53:42.252Z,12.73
2023-05-19T20:56:44.728Z,12.13
2023-05-19T20:59:47.438Z,13.25
2023-05-19T21:02:49.862Z,11.48
2023-05-19T21:05:59.290Z,16.15
2023-05-19T21:09:04.943Z,13.93
2023-05-19T21:12:07.758Z,14.60
2023-05-19T21:15:10.617Z,13.98
2023-05-19T21:18:13.499Z,13.43
2023-05-19T21:21:16.020Z,15.68
2023-05-19T21:24:18.821Z,15.00
2023-05-19T21:27:21.805Z,12.90
2023-05-19T21:30:25.341Z,13.85
2023-05-19T21:33:27.869Z,12.68
2023-05-19T21:36:30.685Z,11.95
2023-05-19T21:39:33.123Z,11.07
2023-05-19T21:42:35.913Z,11.05
2023-05-19T21:45:38.716Z,17.25
2023-05-19T21:48:41.444Z,12.93
2023-05-19T21:51:43.833Z,15.95
2023-05-19T21:54:48.727Z,12.23
2023-05-19T21:57:54.049Z,11.82
2023-05-19T22:00:56.822Z,10.30
2023-05-19T22:03:59.865Z,10.45
2023-05-19T22:07:02.608Z,11.10
2023-05-19T22:10:05.864Z,14.60
2023-05-19T22:13:08.667Z,8.60
2023-05-19T22:16:11.614Z,12.37
2023-05-19T22:19:14.687Z,17.27
2023-05-19T22:22:17.411Z,10.45
2023-05-19T22:25:19.874Z,8.37
2023-05-19T22:28:22.516Z,9.07
2023-05-19T22:31:28.940Z,10.13
2023-05-19T22:34:31.673Z,9.02
2023-05-19T22:37:34.609Z,11.18
2023-05-19T22:40:37.459Z,11.83
2023-05-19T22:43:39.915Z,9.65
2023-05-19T22:46:44.529Z,9.75
2023-05-19T22:49:47.310Z,9.13
2023-05-19T22:52:50.232Z,12.00
2023-05-19T22:55:53.093Z,13.73
2023-05-19T22:58:56.249Z,8.38
2023-05-19T23:01:58.692Z,9.55
2023-05-19T23:05:01.378Z,8.90
2023-05-19T23:08:03.879Z,10.18
2023-05-19T23:11:07.273Z,9.13
2023-05-19T23:14:09.662Z,9.98
2023-05-19T23:17:12.340Z,17.48
2023-05-19T23:20:14.871Z,12.63
2023-05-19T23:23:17.691Z,8.95
2023-05-19T23:26:20.155Z,15.07
2023-05-19T23:29:23.293Z,10.98
2023-05-19T23:32:25.995Z,10.75
2023-05-19T23:35:28.971Z,11.52
2023-05-19T23:38:31.384Z,10.18
2023-05-19T23:41:34.006Z,10.03
2023-05-19T23:44:36.434Z,9.10
2023-05-19T23:47:39.332Z,8.82
2023-05-19T23:50:41.779Z,9.18
2023-05-19T23:53:46.967Z,11.15
2023-05-19T23:56:49.379Z,10.33
2023-05-19T23:59:52.688Z,10.30
